Time;durP1;ratioP1;P1;durP2;ratioP2;P2;SDS_P1;SDS_P2;PMS_P1;PMS_P2;Temp;Humidity;BMP_temperature;BMP_pressure;BME280_temperature;BME280_humidity;BME280_pressure;Samples;Min_cycle;Max_cycle;Signal;HPM_P1;HPM_P2
2022/05/15 00:01:06;;;;;;;16.50;12.60;;;16.30;1.00;;;;;;5090167;28;20182;-56
2022/05/15 00:03:32;;;;;;;14.47;11.60;;;16.30;1.00;;;;;;5095552;28;20968;-55
2022/05/15 00:06:00;;;;;;;13.80;10.77;;;16.30;1.00;;;;;;5091947;28;20436;-54
2022/05/15 00:08:28;;;;;;;15.10;10.70;;;16.20;1.00;;;;;;5102007;28;20181;-56
2022/05/15 00:10:55;;;;;;;16.47;10.33;;;16.30;1.00;;;;;;5103005;28;20527;-54
2022/05/15 00:13:21;;;;;;;11.83;8.83;;;16.10;1.00;;;;;;5106185;28;20442;-55
2022/05/15 00:15:49;;;;;;;10.97;8.33;;;16.10;1.00;;;;;;5107868;28;20860;-55
2022/05/15 00:18:15;;;;;;;14.67;10.40;;;16.00;1.00;;;;;;5100394;28;20453;-55
2022/05/15 00:20:41;;;;;;;14.03;9.57;;;15.90;1.00;;;;;;5102384;28;20432;-53
2022/05/15 00:23:08;;;;;;;13.40;9.97;;;15.80;1.00;;;;;;5093686;28;20527;-55
2022/05/15 00:25:34;;;;;;;11.50;9.47;;;15.80;1.00;;;;;;5092644;28;20190;-55
2022/05/15 00:28:00;;;;;;;10.27;9.13;;;15.80;1.00;;;;;;5092492;28;20443;-54
2022/05/15 00:30:26;;;;;;;14.53;9.27;;;15.70;1.00;;;;;;5094742;28;20444;-54
2022/05/15 00:32:52;;;;;;;13.30;8.27;;;15.50;1.00;;;;;;5095886;28;20218;-53
2022/05/15 00:35:18;;;;;;;11.43;8.97;;;15.50;1.00;;;;;;5109242;28;21012;-56
2022/05/15 00:37:44;;;;;;;11.87;8.33;;;15.50;1.00;;;;;;5100327;28;20806;-55
2022/05/15 00:40:11;;;;;;;9.80;8.43;;;15.50;1.00;;;;;;5096794;28;20464;-55
2022/05/15 00:42:36;;;;;;;10.43;8.30;;;15.50;1.00;;;;;;5099056;28;21046;-53
2022/05/15 00:45:05;;;;;;;13.00;8.10;;;15.50;1.00;;;;;;5078396;28;20559;-54
2022/05/15 00:47:30;;;;;;;12.67;8.60;;;15.40;1.00;;;;;;5097079;28;20850;-52
2022/05/15 00:49:57;;;;;;;15.37;8.67;;;15.40;1.00;;;;;;5102652;28;20455;-55
2022/05/15 00:52:27;;;;;;;11.90;8.30;;;15.40;1.00;;;;;;5097692;28;20316;-55
2022/05/15 00:55:02;;;;;;;8.53;7.20;;;15.40;1.00;;;;;;5102683;28;20977;-54
2022/05/15 00:57:40;;;;;;;11.83;7.97;;;15.40;1.00;;;;;;5094688;28;20456;-54
2022/05/15 01:00:14;;;;;;;14.57;8.17;;;15.30;1.00;;;;;;5109509;28;20443;-54
2022/05/15 01:02:47;;;;;;;9.80;7.43;;;15.20;1.00;;;;;;5109262;28;20443;-54
2022/05/15 01:05:15;;;;;;;13.47;8.10;;;15.10;1.00;;;;;;5107242;28;20437;-53
2022/05/15 01:07:41;;;;;;;11.43;8.93;;;15.10;1.00;;;;;;5108213;28;20452;-55
2022/05/15 01:10:07;;;;;;;11.23;8.37;;;15.00;1.00;;;;;;5105362;28;20506;-54
2022/05/15 01:12:35;;;;;;;12.07;7.50;;;15.00;1.00;;;;;;5110968;28;20209;-54
2022/05/15 01:15:04;;;;;;;12.70;7.60;;;15.00;1.00;;;;;;5106614;28;20445;-57
2022/05/15 01:17:30;;;;;;;10.33;6.60;;;;;;;;;;5108131;28;20572;-53
2022/05/15 01:20:06;;;;;;;14.20;7.40;;;15.00;1.00;;;;;;5106786;28;20456;-57
2022/05/15 01:22:32;;;;;;;15.20;7.73;;;;;;;;;;5102713;28;20576;-54
2022/05/15 01:24:58;;;;;;;9.60;6.77;;;14.80;1.00;;;;;;5103848;28;20443;-55
2022/05/15 01:27:24;;;;;;;7.73;6.80;;;14.80;1.00;;;;;;5111215;28;20455;-54
2022/05/15 01:29:50;;;;;;;9.30;7.03;;;;;;;;;;5107127;28;20335;-55
2022/05/15 01:32:16;;;;;;;12.87;7.30;;;14.80;1.00;;;;;;5105637;28;20217;-55
2022/05/15 01:34:42;;;;;;;12.27;8.10;;;14.80;1.00;;;;;;5111329;28;20443;-54
2022/05/15 01:37:08;;;;;;;8.63;7.10;;;14.80;1.00;;;;;;5108420;28;20925;-54
2022/05/15 01:39:35;;;;;;;12.87;7.37;;;14.80;1.00;;;;;;5104793;28;20308;-54
2022/05/15 01:42:01;;;;;;;12.93;7.20;;;14.70;1.00;;;;;;5103472;28;21191;-55
2022/05/15 01:44:28;;;;;;;13.83;6.90;;;14.70;1.00;;;;;;5111379;28;20479;-55
2022/05/15 01:46:53;;;;;;;10.50;6.90;;;14.70;1.00;;;;;;5098795;28;20452;-54
2022/05/15 01:49:20;;;;;;;12.23;7.13;;;14.70;1.00;;;;;;5104579;28;20509;-55
2022/05/15 01:51:46;;;;;;;8.83;6.67;;;14.70;1.00;;;;;;5103913;28;20206;-54
2022/05/15 01:54:12;;;;;;;8.27;6.40;;;14.70;1.00;;;;;;5094597;28;21006;-54
2022/05/15 01:56:39;;;;;;;8.97;6.70;;;14.60;1.00;;;;;;5094066;28;20517;-53
2022/05/15 01:59:05;;;;;;;10.10;7.30;;;14.60;1.00;;;;;;5093835;28;20407;-54
2022/05/15 02:01:31;;;;;;;9.27;6.80;;;14.60;1.00;;;;;;5109222;28;20432;-52
2022/05/15 02:03:57;;;;;;;9.40;6.27;;;14.60;1.00;;;;;;5108307;27;20451;-54
2022/05/15 02:06:22;;;;;;;10.30;7.10;;;14.60;1.00;;;;;;5096781;28;20217;-53
2022/05/15 02:08:48;;;;;;;15.50;7.53;;;14.60;1.00;;;;;;5095234;28;20206;-54
2022/05/15 02:11:14;;;;;;;11.40;6.40;;;14.60;1.00;;;;;;5093750;28;20676;-52
2022/05/15 02:13:40;;;;;;;9.17;6.53;;;14.50;1.00;;;;;;5099522;28;20296;-54
2022/05/15 02:16:06;;;;;;;9.10;6.90;;;14.50;1.00;;;;;;5093089;28;20547;-54
2022/05/15 02:18:33;;;;;;;9.50;6.57;;;14.40;1.00;;;;;;5098158;28;20190;-54
2022/05/15 02:20:59;;;;;;;8.60;6.03;;;14.40;1.00;;;;;;5103236;28;20813;-53
2022/05/15 02:23:26;;;;;;;10.13;6.33;;;14.40;1.00;;;;;;5093571;28;20448;-53
2022/05/15 02:25:52;;;;;;;9.87;7.37;;;14.40;1.00;;;;;;5093335;28;20205;-54
2022/05/15 02:28:18;;;;;;;11.10;6.97;;;14.40;1.00;;;;;;5093961;28;20456;-55
2022/05/15 02:30:44;;;;;;;8.87;6.10;;;14.40;1.00;;;;;;5106318;28;20459;-54
2022/05/15 02:33:11;;;;;;;9.10;6.37;;;14.30;1.00;;;;;;5103277;28;20206;-52
2022/05/15 02:35:36;;;;;;;7.83;5.87;;;14.30;1.00;;;;;;5110617;28;20269;-54
2022/05/15 02:38:02;;;;;;;12.43;7.70;;;14.30;1.00;;;;;;5100380;28;20532;-54
2022/05/15 02:40:27;;;;;;;10.40;7.30;;;14.30;1.00;;;;;;5104962;28;20551;-54
2022/05/15 02:42:56;;;;;;;12.00;6.80;;;14.30;1.00;;;;;;5099130;28;20201;-55
2022/05/15 02:45:22;;;;;;;7.13;6.40;;;14.20;1.00;;;;;;5102465;28;20230;-54
2022/05/15 02:47:48;;;;;;;12.50;7.33;;;14.20;1.00;;;;;;5093534;28;20448;-54
2022/05/15 02:52:58;;;;;;;11.37;7.40;;;14.00;1.00;;;;;;5095897;28;20249;-53
2022/05/15 02:55:24;;;;;;;7.50;6.80;;;13.90;1.00;;;;;;5102727;28;20475;-53
2022/05/15 02:57:50;;;;;;;8.00;6.83;;;13.90;1.00;;;;;;5104911;28;20189;-54
2022/05/15 03:00:18;;;;;;;13.10;7.17;;;13.90;1.00;;;;;;5092726;28;20465;-54
2022/05/15 03:02:43;;;;;;;9.87;7.90;;;13.90;1.00;;;;;;5077311;28;20524;-55
2022/05/15 03:05:12;;;;;;;10.97;8.00;;;13.90;1.00;;;;;;5097684;28;20523;-53
2022/05/15 03:07:40;;;;;;;12.13;7.60;;;13.90;1.00;;;;;;5106551;28;20189;-54
2022/05/15 03:10:07;;;;;;;9.60;7.57;;;13.90;1.00;;;;;;5101261;28;20498;-55
2022/05/15 03:12:32;;;;;;;8.70;7.93;;;13.80;1.00;;;;;;5101275;28;21132;-52
2022/05/15 03:14:58;;;;;;;11.00;6.90;;;13.90;1.00;;;;;;5108795;28;20435;-53
2022/05/15 03:17:24;;;;;;;10.33;7.70;;;13.80;1.00;;;;;;5100903;28;20197;-56
2022/05/15 03:19:49;;;;;;;9.80;7.30;;;13.90;1.00;;;;;;5099454;28;20183;-54
2022/05/15 03:22:15;;;;;;;8.60;7.80;;;13.80;1.00;;;;;;5109155;28;20186;-55
2022/05/15 03:24:40;;;;;;;15.67;7.83;;;13.80;1.00;;;;;;5099423;28;20210;-53
2022/05/15 03:27:06;;;;;;;9.10;8.17;;;13.80;1.00;;;;;;5096486;28;20197;-53
2022/05/15 03:29:31;;;;;;;10.63;7.80;;;13.70;1.00;;;;;;5094372;28;20194;-55
2022/05/15 03:31:57;;;;;;;10.77;8.50;;;13.70;1.00;;;;;;5109935;28;20209;-55
2022/05/15 03:34:23;;;;;;;9.93;7.60;;;13.70;1.00;;;;;;5102514;28;20238;-54
2022/05/15 03:36:51;;;;;;;8.70;7.80;;;13.70;1.00;;;;;;5111124;28;20197;-53
2022/05/15 03:39:21;;;;;;;10.97;7.63;;;13.60;1.00;;;;;;5099720;28;20508;-54
2022/05/15 03:41:48;;;;;;;10.83;8.13;;;13.70;1.00;;;;;;5094265;28;20531;-53
2022/05/15 03:44:15;;;;;;;8.30;7.00;;;13.70;1.00;;;;;;5093136;28;20480;-54
2022/05/15 03:46:41;;;;;;;15.30;9.60;;;13.70;1.00;;;;;;5094542;28;20489;-55
2022/05/15 03:49:07;;;;;;;10.00;8.53;;;13.80;1.00;;;;;;5099525;28;20452;-54
2022/05/15 03:51:33;;;;;;;11.20;7.40;;;13.80;1.00;;;;;;5092314;28;20846;-53
2022/05/15 03:53:59;;;;;;;14.93;8.10;;;13.80;1.00;;;;;;5102160;28;20447;-55
2022/05/15 03:59:11;;;;;;;9.80;7.83;;;13.80;1.00;;;;;;5096017;28;20480;-54
2022/05/15 04:01:37;;;;;;;10.63;8.07;;;13.80;1.00;;;;;;5102073;28;20543;-54
2022/05/15 04:04:03;;;;;;;13.73;8.27;;;13.70;1.00;;;;;;5099838;28;20592;-52
2022/05/15 04:06:28;;;;;;;12.30;8.57;;;13.90;1.00;;;;;;5101730;28;20183;-54
2022/05/15 04:08:54;;;;;;;12.90;8.63;;;13.90;1.00;;;;;;5098128;28;20276;-54
2022/05/15 04:11:20;;;;;;;10.20;8.40;;;13.90;1.00;;;;;;5102041;28;20202;-54
2022/05/15 04:13:45;;;;;;;12.27;8.70;;;13.90;1.00;;;;;;5095685;28;20464;-53
2022/05/15 04:16:11;;;;;;;17.40;8.50;;;14.00;1.00;;;;;;5103965;28;20182;-54
2022/05/15 04:18:37;;;;;;;9.87;8.40;;;14.00;1.00;;;;;;5101724;28;20631;-55
2022/05/15 04:21:06;;;;;;;8.73;7.93;;;14.00;1.00;;;;;;5103821;28;20193;-53
2022/05/15 04:23:32;;;;;;;10.60;8.87;;;14.00;1.00;;;;;;5101177;28;20186;-54
2022/05/15 04:25:57;;;;;;;12.30;8.63;;;14.00;1.00;;;;;;5095439;28;20444;-53
2022/05/15 04:28:23;;;;;;;11.70;10.00;;;14.10;1.00;;;;;;5101078;28;20190;-55
2022/05/15 04:30:49;;;;;;;9.00;8.07;;;14.10;1.00;;;;;;5093362;28;20529;-55
2022/05/15 04:33:14;;;;;;;11.17;8.43;;;14.10;1.00;;;;;;5087764;28;21753;-53
2022/05/15 04:35:40;;;;;;;11.30;8.93;;;14.20;1.00;;;;;;5099602;28;20187;-53
2022/05/15 04:38:08;;;;;;;8.70;7.83;;;14.30;1.00;;;;;;5098645;28;20531;-54
2022/05/15 04:40:34;;;;;;;9.90;8.87;;;;;;;;;;5101946;28;20421;-54
2022/05/15 04:43:00;;;;;;;10.47;8.40;;;14.30;1.00;;;;;;5096257;28;20519;-54
2022/05/15 04:45:26;;;;;;;11.90;9.50;;;14.30;1.00;;;;;;5112260;28;20479;-55
2022/05/15 04:47:51;;;;;;;11.57;9.60;;;14.40;1.00;;;;;;5105818;28;20588;-53
2022/05/15 04:50:18;;;;;;;16.20;8.80;;;14.40;1.00;;;;;;5107198;28;20478;-55
2022/05/15 04:52:44;;;;;;;9.00;8.00;;;14.50;1.00;;;;;;5096120;28;20215;-53
2022/05/15 04:55:11;;;;;;;11.80;8.93;;;14.50;1.00;;;;;;5106125;28;20937;-53
2022/05/15 04:57:37;;;;;;;11.73;8.80;;;14.60;1.00;;;;;;5107569;28;20224;-52
2022/05/15 05:00:06;;;;;;;12.43;8.60;;;14.70;1.00;;;;;;5111354;28;20471;-53
2022/05/15 05:02:31;;;;;;;12.47;8.20;;;14.70;1.00;;;;;;5102720;28;20443;-52
2022/05/15 05:04:59;;;;;;;10.03;7.93;;;14.70;1.00;;;;;;5108215;28;20592;-53
2022/05/15 05:07:28;;;;;;;9.67;7.90;;;14.80;1.00;;;;;;5103390;28;20226;-52
2022/05/15 05:09:54;;;;;;;10.10;7.57;;;14.80;1.00;;;;;;5100128;28;20481;-52
2022/05/15 05:12:20;;;;;;;8.83;7.93;;;14.90;1.00;;;;;;5110848;28;20467;-54
2022/05/15 05:14:46;;;;;;;9.63;8.67;;;14.90;1.00;;;;;;5095015;28;20474;-54
2022/05/15 05:17:12;;;;;;;12.40;9.13;;;14.90;1.00;;;;;;5094932;28;20452;-53
2022/05/15 05:19:37;;;;;;;10.93;8.77;;;15.10;1.00;;;;;;5108960;28;20273;-53
2022/05/15 05:22:03;;;;;;;8.70;7.30;;;15.10;1.00;;;;;;5099410;28;20552;-54
2022/05/15 05:24:29;;;;;;;8.50;7.60;;;14.90;1.00;;;;;;5103649;28;20212;-53
2022/05/15 05:26:55;;;;;;;11.87;8.70;;;15.40;1.00;;;;;;5109088;28;20193;-55
2022/05/15 05:29:21;;;;;;;8.13;7.33;;;15.40;1.00;;;;;;5106577;28;20448;-55
2022/05/15 05:31:47;;;;;;;11.63;7.97;;;15.70;1.00;;;;;;5094529;28;20190;-55
2022/05/15 05:34:13;;;;;;;11.57;8.33;;;15.80;1.00;;;;;;5098557;28;20827;-54
2022/05/15 05:36:38;;;;;;;11.43;8.43;;;15.90;1.00;;;;;;5093682;28;20524;-54
2022/05/15 05:39:04;;;;;;;10.10;9.07;;;15.90;1.00;;;;;;5098397;28;20278;-53
2022/05/15 05:41:29;;;;;;;10.30;9.00;;;16.00;1.00;;;;;;5099082;28;20186;-55
2022/05/15 05:43:55;;;;;;;11.17;9.40;;;16.10;1.00;;;;;;5107965;28;20182;-55
2022/05/15 05:46:21;;;;;;;11.30;7.77;;;16.30;1.00;;;;;;5098549;28;20222;-55
2022/05/15 05:48:48;;;;;;;9.37;8.40;;;16.50;1.00;;;;;;5105856;28;20193;-53
2022/05/15 05:51:14;;;;;;;8.90;8.07;;;16.50;1.00;;;;;;5111515;28;20964;-53
2022/05/15 05:53:40;;;;;;;10.83;8.73;;;16.60;1.00;;;;;;5097838;28;20957;-54
2022/05/15 05:56:06;;;;;;;12.80;8.50;;;16.60;1.00;;;;;;5110221;28;20451;-54
2022/05/15 05:58:32;;;;;;;13.87;9.20;;;16.70;1.00;;;;;;5102091;28;21338;-55
2022/05/15 06:00:57;;;;;;;10.60;7.40;;;16.90;1.00;;;;;;5110412;28;20182;-53
2022/05/15 06:06:07;;;;;;;8.70;7.80;;;17.20;1.00;;;;;;5098899;28;20212;-53
2022/05/15 06:08:33;;;;;;;11.00;7.17;;;17.40;1.00;;;;;;5104551;28;20445;-54
2022/05/15 06:10:59;;;;;;;12.47;7.53;;;17.40;1.00;;;;;;5098868;28;20190;-54
2022/05/15 06:13:25;;;;;;;9.30;6.73;;;17.40;1.00;;;;;;5093817;28;20209;-53
2022/05/15 06:15:52;;;;;;;11.30;7.27;;;17.60;1.00;;;;;;5111171;28;20490;-54
2022/05/15 06:18:17;;;;;;;9.70;6.60;;;17.60;1.00;;;;;;5103484;28;20928;-53
2022/05/15 06:20:43;;;;;;;9.33;6.70;;;17.70;1.00;;;;;;5107831;28;20497;-53
2022/05/15 06:23:09;;;;;;;11.27;7.47;;;17.70;1.00;;;;;;5096200;28;20328;-54
2022/05/15 06:25:35;;;;;;;8.03;6.13;;;17.80;1.00;;;;;;5099535;28;20320;-55
2022/05/15 06:28:01;;;;;;;9.63;6.87;;;17.60;1.00;;;;;;5096700;28;20277;-54
2022/05/15 06:30:26;;;;;;;11.53;7.30;;;17.70;1.00;;;;;;5104285;28;20187;-55
2022/05/15 06:32:52;;;;;;;11.50;7.17;;;17.90;1.00;;;;;;5095505;28;20515;-56
2022/05/15 06:35:18;;;;;;;9.30;6.20;;;17.90;1.00;;;;;;5101349;28;20274;-54
2022/05/15 06:37:44;;;;;;;10.37;6.40;;;17.80;1.00;;;;;;5107030;28;20205;-54
2022/05/15 06:40:12;;;;;;;7.83;6.40;;;17.90;1.00;;;;;;5106145;28;20538;-54
2022/05/15 06:42:40;;;;;;;12.63;7.70;;;18.10;1.00;;;;;;5098002;28;20274;-53
2022/05/15 06:45:06;;;;;;;12.40;7.50;;;18.20;1.00;;;;;;5091807;28;20981;-55
2022/05/15 06:47:32;;;;;;;8.93;6.83;;;18.40;1.00;;;;;;5094524;28;20437;-55
2022/05/15 06:49:58;;;;;;;9.57;6.97;;;18.70;1.00;;;;;;5105147;28;20436;-54
2022/05/15 06:52:24;;;;;;;7.00;6.33;;;18.80;1.00;;;;;;5098092;28;20218;-53
2022/05/15 06:54:50;;;;;;;10.70;5.97;;;19.00;1.00;;;;;;5104191;28;20642;-54
2022/05/15 06:57:32;;;;;;;10.63;5.70;;;19.00;1.00;;;;;;5105126;28;20425;-53
2022/05/15 07:00:10;;;;;;;9.40;7.20;;;19.00;1.00;;;;;;5098959;28;20190;-53
2022/05/15 07:02:36;;;;;;;14.63;6.40;;;19.00;1.00;;;;;;5103381;28;20524;-53
2022/05/15 07:05:04;;;;;;;10.40;5.83;;;19.30;1.00;;;;;;5109611;28;20466;-53
2022/05/15 07:07:29;;;;;;;8.13;5.53;;;19.20;1.00;;;;;;5105359;28;20609;-54
2022/05/15 07:09:55;;;;;;;6.03;4.70;;;19.20;1.00;;;;;;5098013;28;20527;-53
2022/05/15 07:12:20;;;;;;;13.77;5.10;;;19.20;1.00;;;;;;5097820;28;20240;-55
2022/05/15 07:14:46;;;;;;;8.73;4.83;;;;;;;;;;5102778;28;20231;-54
2022/05/15 07:17:12;;;;;;;9.90;4.70;;;19.30;1.00;;;;;;5109158;28;20196;-55
2022/05/15 07:19:38;;;;;;;13.17;5.73;;;19.40;1.00;;;;;;5109182;28;20957;-54
2022/05/15 07:22:04;;;;;;;9.40;5.23;;;19.60;1.00;;;;;;5091309;28;20632;-55
2022/05/15 07:24:29;;;;;;;4.23;3.80;;;19.40;1.00;;;;;;5101627;28;20186;-55
2022/05/15 07:26:55;;;;;;;6.40;4.53;;;19.50;1.00;;;;;;5096959;28;20199;-55
2022/05/15 07:29:24;;;;;;;10.40;5.23;;;19.40;1.00;;;;;;5096756;28;20205;-55
2022/05/15 07:31:51;;;;;;;6.07;4.37;;;19.70;1.00;;;;;;5095815;28;20204;-55
2022/05/15 07:34:17;;;;;;;7.60;4.33;;;19.60;1.00;;;;;;5099089;28;20444;-54
2022/05/15 07:36:43;;;;;;;8.90;4.50;;;19.70;1.00;;;;;;5099177;28;20478;-53
2022/05/15 07:39:08;;;;;;;8.60;4.43;;;20.00;1.00;;;;;;5103928;28;20444;-54
2022/05/15 07:41:34;;;;;;;10.20;4.70;;;20.20;1.00;;;;;;5073300;28;20269;-55
2022/05/15 07:43:59;;;;;;;8.30;4.63;;;20.50;1.00;;;;;;5090215;28;20214;-56
2022/05/15 07:46:25;;;;;;;8.27;5.20;;;20.60;1.00;;;;;;5101295;28;20270;-56
2022/05/15 07:48:51;;;;;;;8.07;5.07;;;20.70;1.00;;;;;;5091981;28;20236;-54
2022/05/15 07:51:16;;;;;;;10.40;4.80;;;20.90;1.00;;;;;;5102224;28;20698;-55
2022/05/15 07:53:42;;;;;;;4.53;3.90;;;21.00;1.00;;;;;;5094536;28;20264;-56
2022/05/15 07:56:12;;;;;;;10.23;5.00;;;20.80;1.00;;;;;;5107256;28;20263;-54
2022/05/15 07:58:38;;;;;;;10.80;4.97;;;20.80;1.00;;;;;;5094145;28;20183;-54
2022/05/15 08:01:07;;;;;;;6.37;4.27;;;21.00;1.00;;;;;;5092007;28;20438;-55
2022/05/15 08:03:38;;;;;;;7.30;4.37;;;21.00;1.00;;;;;;5094446;28;20499;-54
2022/05/15 08:08:51;;;;;;;11.33;4.43;;;21.20;1.00;;;;;;5093160;28;20821;-54
2022/05/15 08:11:17;;;;;;;6.80;4.60;;;21.50;1.00;;;;;;5095704;28;20452;-53
2022/05/15 08:13:43;;;;;;;5.80;3.90;;;21.40;1.00;;;;;;5101430;28;20210;-56
2022/05/15 08:16:09;;;;;;;7.20;4.50;;;21.40;1.00;;;;;;5092079;28;20433;-54
2022/05/15 08:24:03;;;;;;;9.53;4.90;;;21.20;1.00;;;;;;5092061;28;20443;-54
2022/05/15 08:26:29;;;;;;;5.63;4.10;;;21.30;1.00;;;;;;5089882;28;20415;-54
2022/05/15 08:28:55;;;;;;;5.50;4.50;;;21.30;1.00;;;;;;5094996;28;20527;-55
2022/05/15 08:31:24;;;;;;;7.60;5.00;;;21.10;1.00;;;;;;5108862;28;20471;-54
2022/05/15 08:33:50;;;;;;;8.47;4.40;;;21.00;1.00;;;;;;5101469;28;20667;-54
2022/05/15 08:36:16;;;;;;;10.67;4.67;;;21.10;1.00;;;;;;5094367;28;20457;-54
2022/05/15 08:38:43;;;;;;;10.03;4.40;;;21.20;1.00;;;;;;5091317;28;20513;-55
2022/05/15 08:41:33;;;;;;;6.67;3.93;;;21.20;1.00;;;;;;5101885;28;20197;-55
2022/05/15 08:44:09;;;;;;;7.00;3.63;;;21.60;1.00;;;;;;5095250;28;20485;-54
2022/05/15 08:47:00;;;;;;;8.57;3.77;;;21.90;1.00;;;;;;5090387;28;20467;-55
2022/05/15 08:49:41;;;;;;;10.80;3.50;;;21.90;1.00;;;;;;5094705;28;20470;-55
2022/05/15 08:52:13;;;;;;;7.87;3.30;;;21.90;1.00;;;;;;5108170;28;20446;-55
2022/05/15 08:54:48;;;;;;;6.97;3.00;;;22.20;1.00;;;;;;5102246;28;20777;-54
2022/05/15 08:57:20;;;;;;;9.40;3.77;;;22.00;1.00;;;;;;5104687;28;21201;-55
2022/05/15 08:59:57;;;;;;;8.47;3.63;;;22.00;1.00;;;;;;5102329;28;20434;-55
2022/05/15 09:02:23;;;;;;;5.77;3.57;;;21.80;1.00;;;;;;5095241;28;20487;-55
2022/05/15 09:04:52;;;;;;;9.60;3.80;;;21.90;1.00;;;;;;5099186;28;20469;-53
2022/05/15 09:07:25;;;;;;;8.90;3.90;;;21.50;1.00;;;;;;5098015;28;20419;-55
2022/05/15 09:10:02;;;;;;;8.93;3.73;;;21.60;1.00;;;;;;5103703;28;20451;-55
2022/05/15 09:12:30;;;;;;;8.73;3.30;;;21.80;1.00;;;;;;5096428;28;20976;-54
2022/05/15 09:15:04;;;;;;;6.90;3.43;;;21.80;1.00;;;;;;5095972;28;20471;-53
2022/05/15 09:17:32;;;;;;;9.83;3.40;;;22.20;1.00;;;;;;5107220;28;20480;-55
2022/05/15 09:20:08;;;;;;;7.83;3.90;;;22.40;1.00;;;;;;5106500;28;20422;-52
2022/05/15 09:22:45;;;;;;;8.00;4.13;;;22.10;1.00;;;;;;5101453;28;20962;-54
2022/05/15 09:25:18;;;;;;;6.70;3.50;;;21.60;1.00;;;;;;5100914;28;20526;-54
2022/05/15 09:28:04;;;;;;;5.70;3.40;;;21.90;1.00;;;;;;5108873;28;20551;-55
2022/05/15 09:30:39;;;;;;;7.43;3.63;;;22.10;1.00;;;;;;5095357;28;20422;-54
2022/05/15 09:33:06;;;;;;;8.20;3.60;;;22.30;1.00;;;;;;5097881;28;20449;-53
2022/05/15 09:35:41;;;;;;;6.97;3.50;;;22.50;1.00;;;;;;5099946;28;20425;-54
2022/05/15 09:38:27;;;;;;;6.20;3.40;;;22.80;1.00;;;;;;5098636;28;20480;-53
2022/05/15 09:44:24;;;;;;;4.23;3.53;;;22.50;1.00;;;;;;5092479;28;20434;-59
2022/05/15 09:46:59;;;;;;;12.00;3.90;;;22.20;1.00;;;;;;5097112;28;20443;-53
2022/05/15 09:49:26;;;;;;;7.43;3.70;;;22.10;1.00;;;;;;5104574;28;20961;-54
2022/05/15 09:51:55;;;;;;;9.03;4.13;;;22.40;1.00;;;;;;5104403;28;20452;-55
2022/05/15 09:54:34;;;;;;;5.67;2.87;;;22.60;1.00;;;;;;5107311;28;20921;-54
2022/05/15 09:57:17;;;;;;;8.37;3.70;;;22.60;1.00;;;;;;5096546;28;20418;-55
2022/05/15 09:59:57;;;;;;;10.10;3.57;;;22.40;1.00;;;;;;5100294;28;20440;-54
2022/05/15 10:02:25;;;;;;;6.30;3.37;;;22.70;1.00;;;;;;5095668;28;20942;-53
2022/05/15 10:04:52;;;;;;;6.63;3.67;;;22.90;1.00;;;;;;5093826;28;20430;-54
2022/05/15 10:07:44;;;;;;;8.53;3.20;;;22.60;1.00;;;;;;5095679;28;20529;-55
2022/05/15 10:10:36;;;;;;;5.80;2.87;;;22.20;1.00;;;;;;5096060;28;20501;-54
2022/05/15 10:13:23;;;;;;;7.10;3.57;;;22.30;1.00;;;;;;5090510;28;20562;-54
2022/05/15 10:15:50;;;;;;;6.97;3.03;;;22.20;1.00;;;;;;5094440;28;20467;-56
2022/05/15 10:18:27;;;;;;;10.13;3.53;;;22.10;1.00;;;;;;5096142;28;20527;-57
2022/05/15 10:20:54;;;;;;;5.83;2.90;;;22.40;1.00;;;;;;5100197;28;20584;-56
2022/05/15 10:23:39;;;;;;;4.93;3.00;;;22.30;1.00;;;;;;5099187;28;20418;-55
2022/05/15 10:26:22;;;;;;;6.37;3.80;;;22.40;1.00;;;;;;5098258;28;20514;-54
2022/05/15 10:28:59;;;;;;;8.93;3.30;;;22.70;1.00;;;;;;5079755;28;20536;-55
2022/05/15 10:31:50;;;;;;;8.83;3.07;;;22.70;1.00;;;;;;5096778;28;20415;-56
2022/05/15 10:34:21;;;;;;;8.50;3.93;;;23.10;1.00;;;;;;5097958;28;20544;-55
2022/05/15 10:37:06;;;;;;;5.43;2.60;;;23.20;1.00;;;;;;5097790;28;20446;-52
2022/05/15 10:40:03;;;;;;;6.13;2.80;;;23.20;1.00;;;;;;5098287;28;20968;-56
2022/05/15 10:42:37;;;;;;;7.03;2.93;;;22.60;1.00;;;;;;5105105;28;20479;-54
2022/05/15 10:45:31;;;;;;;8.73;2.80;;;22.70;1.00;;;;;;5106003;28;20563;-55
2022/05/15 10:48:10;;;;;;;6.03;3.00;;;23.20;1.00;;;;;;5094775;28;20415;-55
2022/05/15 10:50:47;;;;;;;5.47;2.77;;;23.10;1.00;;;;;;5085168;28;20501;-52
2022/05/15 10:59:15;;;;;;;5.93;3.73;;;23.00;1.00;;;;;;5090073;28;22450;-52
2022/05/15 11:02:23;;;;;;;11.20;3.00;;;23.20;1.00;;;;;;5088948;28;20415;-54
2022/05/15 11:04:57;;;;;;;6.87;3.30;;;23.40;1.00;;;;;;5094736;28;20459;-53
2022/05/15 11:07:57;;;;;;;6.70;3.80;;;23.40;1.00;;;;;;5096174;28;20468;-55
2022/05/15 11:10:41;;;;;;;5.80;3.10;;;23.30;1.00;;;;;;5094662;28;20446;-56
2022/05/15 11:13:16;;;;;;;5.00;3.00;;;23.50;1.00;;;;;;5099834;28;20482;-54
2022/05/15 11:15:48;;;;;;;7.87;3.30;;;23.70;1.00;;;;;;5101181;28;20417;-54
2022/05/15 11:18:47;;;;;;;6.50;3.03;;;22.80;1.00;;;;;;5104977;28;20804;-54
2022/05/15 11:21:30;;;;;;;4.90;3.33;;;23.00;1.00;;;;;;5092750;28;20435;-56
2022/05/15 11:24:21;;;;;;;3.83;2.23;;;23.10;1.00;;;;;;5108257;28;20444;-54
2022/05/15 11:26:54;;;;;;;8.60;3.90;;;23.20;1.00;;;;;;5107360;28;20452;-54
2022/05/15 11:29:20;;;;;;;6.93;3.93;;;23.60;1.00;;;;;;5108416;28;20505;-54
2022/05/15 11:31:52;;;;;;;4.30;2.90;;;23.70;1.00;;;;;;5102901;28;20449;-55
2022/05/15 11:34:18;;;;;;;6.33;3.80;;;23.80;1.00;;;;;;5107835;28;20526;-56
2022/05/15 11:36:48;;;;;;;6.00;3.13;;;23.50;1.00;;;;;;5108692;28;20588;-55
2022/05/15 11:39:14;;;;;;;7.07;3.00;;;23.60;1.00;;;;;;5106309;28;20190;-55
2022/05/15 11:41:42;;;;;;;5.60;3.60;;;23.40;1.00;;;;;;5108088;28;20479;-54
2022/05/15 11:44:34;;;;;;;8.23;3.53;;;23.20;1.00;;;;;;5100680;28;20328;-57
2022/05/15 11:47:03;;;;;;;5.03;3.07;;;23.50;1.00;;;;;;5096321;28;20461;-54
2022/05/15 11:49:38;;;;;;;4.90;2.83;;;23.70;1.00;;;;;;5101588;28;20944;-56
2022/05/15 11:52:04;;;;;;;5.27;2.70;;;23.70;1.00;;;;;;5101634;28;20467;-55
2022/05/15 11:54:41;;;;;;;5.60;3.10;;;23.70;1.00;;;;;;5094993;28;20822;-56
2022/05/15 11:57:31;;;;;;;9.07;3.40;;;23.60;1.00;;;;;;5105124;28;20182;-54
2022/05/15 12:00:00;;;;;;;9.47;3.00;;;23.60;1.00;;;;;;5103063;28;20518;-54
2022/05/15 12:02:28;;;;;;;6.47;2.90;;;23.70;1.00;;;;;;5099939;28;20447;-57
2022/05/15 12:05:20;;;;;;;7.27;3.43;;;23.90;1.00;;;;;;5096355;28;20777;-56
2022/05/15 12:08:18;;;;;;;6.90;2.90;;;23.80;1.00;;;;;;5094428;28;20411;-56
2022/05/15 12:10:43;;;;;;;6.00;3.17;;;23.50;1.00;;;;;;5086412;28;20426;-55
2022/05/15 12:13:30;;;;;;;5.20;3.10;;;23.50;1.00;;;;;;5106080;28;20471;-53
2022/05/15 12:16:33;;;;;;;5.40;2.47;;;23.20;1.00;;;;;;5097093;28;21979;-54
2022/05/15 12:19:15;;;;;;;5.80;3.40;;;23.20;1.00;;;;;;5104552;28;20414;-56
2022/05/15 12:21:46;;;;;;;7.97;3.10;;;23.20;1.00;;;;;;5091015;28;20410;-54
2022/05/15 12:24:28;;;;;;;5.43;3.03;;;23.50;1.00;;;;;;5101569;28;20452;-57
2022/05/15 12:26:59;;;;;;;4.93;2.77;;;23.60;1.00;;;;;;5101231;28;20486;-53
2022/05/15 12:29:40;;;;;;;4.03;2.87;;;23.90;1.00;;;;;;5096836;28;20542;-54
2022/05/15 12:32:19;;;;;;;7.03;3.30;;;23.90;1.00;;;;;;5099563;28;20596;-55
2022/05/15 12:34:48;;;;;;;6.17;3.30;;;23.60;1.00;;;;;;5103903;28;20448;-52
2022/05/15 12:38:06;;;;;;;4.17;2.30;;;23.30;1.00;;;;;;5100240;28;20488;-52
2022/05/15 12:40:54;;;;;;;4.80;2.67;;;22.80;1.00;;;;;;5093857;28;20426;-54
2022/05/15 12:43:38;;;;;;;7.03;2.37;;;22.70;1.00;;;;;;5102474;28;20457;-55
2022/05/15 12:46:20;;;;;;;4.53;2.73;;;23.20;1.00;;;;;;5105163;28;20463;-55
2022/05/15 12:48:46;;;;;;;8.40;2.67;;;23.60;1.00;;;;;;5098455;28;20480;-54
2022/05/15 12:51:13;;;;;;;6.23;2.80;;;23.60;1.00;;;;;;5097041;28;20440;-53
2022/05/15 12:53:42;;;;;;;5.53;2.50;;;23.30;1.00;;;;;;5101640;28;20239;-55
2022/05/15 12:56:17;;;;;;;3.83;2.60;;;23.20;1.00;;;;;;5106859;28;20759;-56
2022/05/15 12:58:49;;;;;;;4.50;2.90;;;23.40;1.00;;;;;;5112583;28;20422;-54
2022/05/15 13:01:16;;;;;;;5.50;3.13;;;23.50;1.00;;;;;;5108609;28;20426;-55
2022/05/15 13:03:53;;;;;;;4.80;2.77;;;23.40;1.00;;;;;;5101716;28;20476;-55
2022/05/15 13:06:25;;;;;;;5.43;3.10;;;23.20;1.00;;;;;;5100270;28;20418;-53
2022/05/15 13:08:54;;;;;;;6.00;2.90;;;23.20;1.00;;;;;;5093549;28;20481;-54
2022/05/15 13:11:23;;;;;;;5.23;3.10;;;23.40;1.00;;;;;;5108960;28;20443;-54
2022/05/15 13:13:53;;;;;;;3.80;2.43;;;23.50;1.00;;;;;;5106503;28;20952;-55
2022/05/15 13:16:21;;;;;;;4.90;2.50;;;23.70;1.00;;;;;;5105325;28;20915;-54
2022/05/15 13:18:50;;;;;;;7.13;2.90;;;23.70;1.00;;;;;;5102577;28;20810;-56
2022/05/15 13:21:42;;;;;;;3.20;2.30;;;23.60;1.00;;;;;;5110090;28;20415;-54
2022/05/15 13:24:09;;;;;;;5.97;2.30;;;23.40;1.00;;;;;;5108367;28;20460;-56
2022/05/15 13:26:44;;;;;;;2.70;2.17;;;23.50;1.00;;;;;;5110785;28;20414;-53
2022/05/15 13:29:14;;;;;;;3.50;2.53;;;23.80;1.00;;;;;;5104784;28;20451;-54
2022/05/15 13:31:40;;;;;;;3.60;2.40;;;23.90;1.00;;;;;;5112662;28;20442;-57
2022/05/15 13:34:10;;;;;;;2.60;2.03;;;23.90;1.00;;;;;;5081016;28;20741;-56
2022/05/15 13:36:36;;;;;;;5.77;2.50;;;23.80;1.00;;;;;;5107949;28;20939;-55